sensor_id;sensor_type;location;lat;lon;timestamp;pressure;altitude;pressure_sealevel;temperature;humidity
75933;BME280;64803;52.356;5.310;2023-01-24T00:02:06;104345.03;;;3.19;91.05
75933;BME280;64803;52.356;5.310;2023-01-24T00:04:32;104332.81;;;3.14;91.56
75933;BME280;64803;52.356;5.310;2023-01-24T00:06:58;104344.31;;;3.14;91.89
75933;BME280;64803;52.356;5.310;2023-01-24T00:09:24;104335.44;;;3.15;90.18
75933;BME280;64803;52.356;5.310;2023-01-24T00:11:50;104335.34;;;3.18;88.23
75933;BME280;64803;52.356;5.310;2023-01-24T00:14:16;104328.19;;;3.20;88.66
75933;BME280;64803;52.356;5.310;2023-01-24T00:16:42;104332.47;;;3.24;89.31
75933;BME280;64803;52.356;5.310;2023-01-24T00:19:08;104329.81;;;3.24;88.60
75933;BME280;64803;52.356;5.310;2023-01-24T00:21:34;104331.63;;;3.24;90.64
75933;BME280;64803;52.356;5.310;2023-01-24T00:24:00;104328.19;;;3.20;90.84
75933;BME280;64803;52.356;5.310;2023-01-24T00:26:26;104330.97;;;3.16;91.28
75933;BME280;64803;52.356;5.310;2023-01-24T00:28:52;104323.16;;;3.11;89.20
75933;BME280;64803;52.356;5.310;2023-01-24T00:31:19;104319.53;;;3.14;89.86
75933;BME280;64803;52.356;5.310;2023-01-24T00:33:45;104331.91;;;3.15;90.36
75933;BME280;64803;52.356;5.310;2023-01-24T00:36:11;104324.84;;;3.14;90.44
75933;BME280;64803;52.356;5.310;2023-01-24T00:38:37;104326.75;;;3.09;90.88
75933;BME280;64803;52.356;5.310;2023-01-24T00:41:03;104319.78;;;3.06;91.41
75933;BME280;64803;52.356;5.310;2023-01-24T00:43:29;104317.94;;;3.08;92.19
75933;BME280;64803;52.356;5.310;2023-01-24T00:45:56;104316.09;;;3.10;90.84
75933;BME280;64803;52.356;5.310;2023-01-24T00:48:22;104309.16;;;3.06;90.64
75933;BME280;64803;52.356;5.310;2023-01-24T00:50:48;104307.34;;;3.07;89.25
75933;BME280;64803;52.356;5.310;2023-01-24T00:53:14;104304.63;;;3.10;88.43
75933;BME280;64803;52.356;5.310;2023-01-24T00:55:44;104304.66;;;3.08;89.48
75933;BME280;64803;52.356;5.310;2023-01-24T00:58:12;104301.13;;;3.08;90.09
75933;BME280;64803;52.356;5.310;2023-01-24T01:00:38;104302.81;;;3.10;91.14
75933;BME280;64803;52.356;5.310;2023-01-24T01:03:08;104296.59;;;3.11;91.05
75933;BME280;64803;52.356;5.310;2023-01-24T01:05:35;104292.19;;;3.10;90.37
75933;BME280;64803;52.356;5.310;2023-01-24T01:08:02;104297.50;;;3.12;90.46
75933;BME280;64803;52.356;5.310;2023-01-24T01:10:28;104298.34;;;3.12;90.27
75933;BME280;64803;52.356;5.310;2023-01-24T01:12:56;104303.66;;;3.12;90.08
75933;BME280;64803;52.356;5.310;2023-01-24T01:15:22;104301.09;;;3.09;90.33
75933;BME280;64803;52.356;5.310;2023-01-24T01:17:48;104297.75;;;3.03;91.20
75933;BME280;64803;52.356;5.310;2023-01-24T01:20:14;104302.19;;;3.02;90.60
75933;BME280;64803;52.356;5.310;2023-01-24T01:22:40;104299.47;;;3.04;89.26
75933;BME280;64803;52.356;5.310;2023-01-24T01:25:07;104294.94;;;3.07;88.42
75933;BME280;64803;52.356;5.310;2023-01-24T01:27:33;104302.97;;;3.06;89.30
75933;BME280;64803;52.356;5.310;2023-01-24T01:29:59;104303.84;;;3.06;88.42
75933;BME280;64803;52.356;5.310;2023-01-24T01:32:25;104307.34;;;3.07;88.37
75933;BME280;64803;52.356;5.310;2023-01-24T01:34:52;104314.19;;;3.15;87.01
75933;BME280;64803;52.356;5.310;2023-01-24T01:37:18;104305.41;;;3.13;87.68
75933;BME280;64803;52.356;5.310;2023-01-24T01:39:44;104314.38;;;3.09;89.25
75933;BME280;64803;52.356;5.310;2023-01-24T01:42:10;104299.38;;;3.07;89.77
75933;BME280;64803;52.356;5.310;2023-01-24T01:44:38;104307.41;;;3.05;89.36
75933;BME280;64803;52.356;5.310;2023-01-24T01:47:13;104308.38;;;3.03;89.59
75933;BME280;64803;52.356;5.310;2023-01-24T01:49:46;104308.41;;;3.01;90.10
75933;BME280;64803;52.356;5.310;2023-01-24T01:52:14;104304.00;;;3.00;89.75
75933;BME280;64803;52.356;5.310;2023-01-24T01:54:42;104303.19;;;2.98;88.86
75933;BME280;64803;52.356;5.310;2023-01-24T01:57:17;104310.25;;;2.99;88.88
75933;BME280;64803;52.356;5.310;2023-01-24T01:59:56;104310.19;;;3.01;88.93
75933;BME280;64803;52.356;5.310;2023-01-24T02:02:24;104304.94;;;2.99;89.90
75933;BME280;64803;52.356;5.310;2023-01-24T02:05:03;104299.63;;;2.99;90.04
75933;BME280;64803;52.356;5.310;2023-01-24T02:10:00;104303.97;;;3.02;88.32
75933;BME280;64803;52.356;5.310;2023-01-24T02:12:34;104295.06;;;3.04;89.79
75933;BME280;64803;52.356;5.310;2023-01-24T02:15:15;104294.28;;;3.01;90.14
75933;BME280;64803;52.356;5.310;2023-01-24T02:18:00;104293.53;;;2.96;88.71
75933;BME280;64803;52.356;5.310;2023-01-24T02:20:36;104290.84;;;2.97;89.70
75933;BME280;64803;52.356;5.310;2023-01-24T02:26:11;104289.94;;;2.97;89.75
75933;BME280;64803;52.356;5.310;2023-01-24T02:28:42;104295.25;;;2.97;90.82
75933;BME280;64803;52.356;5.310;2023-01-24T02:31:08;104291.50;;;3.04;87.32
75933;BME280;64803;52.356;5.310;2023-01-24T02:33:34;104295.94;;;3.05;88.44
75933;BME280;64803;52.356;5.310;2023-01-24T02:38:32;104261.13;;;2.85;89.93
75933;BME280;64803;52.356;5.310;2023-01-24T02:40:59;104293.44;;;2.99;89.55
75933;BME280;64803;52.356;5.310;2023-01-24T02:43:34;104291.75;;;2.96;90.32
75933;BME280;64803;52.356;5.310;2023-01-24T02:46:02;104291.75;;;2.96;90.18
75933;BME280;64803;52.356;5.310;2023-01-24T02:48:29;104268.31;;;2.81;89.37
75933;BME280;64803;52.356;5.310;2023-01-24T02:50:54;104293.50;;;2.97;90.10
75933;BME280;64803;52.356;5.310;2023-01-24T02:53:39;104284.69;;;2.95;90.18
75933;BME280;64803;52.356;5.310;2023-01-24T02:56:08;104278.59;;;2.92;89.33
75933;BME280;64803;52.356;5.310;2023-01-24T02:58:53;104278.59;;;2.92;90.86
75933;BME280;64803;52.356;5.310;2023-01-24T03:01:20;104281.31;;;2.90;91.42
75933;BME280;64803;52.356;5.310;2023-01-24T03:03:51;104293.66;;;2.91;91.55
75933;BME280;64803;52.356;5.310;2023-01-24T03:06:19;104292.75;;;2.92;90.28
75933;BME280;64803;52.356;5.310;2023-01-24T03:08:46;104283.03;;;2.93;90.14
75933;BME280;64803;52.356;5.310;2023-01-24T03:11:19;104278.59;;;2.92;90.43
75933;BME280;64803;52.356;5.310;2023-01-24T03:13:45;104273.41;;;2.89;89.86
75933;BME280;64803;52.356;5.310;2023-01-24T03:16:30;104267.25;;;2.87;90.10
75933;BME280;64803;52.356;5.310;2023-01-24T03:19:15;104271.56;;;2.91;89.56
75933;BME280;64803;52.356;5.310;2023-01-24T03:22:01;104272.53;;;2.88;89.51
75933;BME280;64803;52.356;5.310;2023-01-24T03:24:46;104278.75;;;2.87;89.29
75933;BME280;64803;52.356;5.310;2023-01-24T03:27:31;104271.63;;;2.88;90.37
75933;BME280;64803;52.356;5.310;2023-01-24T03:30:19;104276.22;;;2.83;89.51
75933;BME280;64803;52.356;5.310;2023-01-24T03:33:04;104282.50;;;2.80;90.36
75933;BME280;64803;52.356;5.310;2023-01-24T03:35:49;104274.53;;;2.80;91.79
75933;BME280;64803;52.356;5.310;2023-01-24T03:38:27;104260.69;;;2.69;91.87
75933;BME280;64803;52.356;5.310;2023-01-24T03:41:12;104269.22;;;2.80;91.67
75933;BME280;64803;52.356;5.310;2023-01-24T03:43:41;104279.00;;;2.78;91.95
75933;BME280;64803;52.356;5.310;2023-01-24T03:46:08;104280.00;;;2.74;92.55
75933;BME280;64803;52.356;5.310;2023-01-24T03:48:52;104285.41;;;2.71;93.19
75933;BME280;64803;52.356;5.310;2023-01-24T03:51:25;104279.31;;;2.68;92.83
75933;BME280;64803;52.356;5.310;2023-01-24T03:54:10;104274.94;;;2.65;90.87
75933;BME280;64803;52.356;5.310;2023-01-24T03:56:47;104282.81;;;2.70;91.36
75933;BME280;64803;52.356;5.310;2023-01-24T03:59:13;104284.47;;;2.72;91.87
75933;BME280;64803;52.356;5.310;2023-01-24T04:01:40;104289.00;;;2.70;91.37
75933;BME280;64803;52.356;5.310;2023-01-24T04:04:28;104294.34;;;2.67;91.58
75933;BME280;64803;52.356;5.310;2023-01-24T04:07:14;104291.75;;;2.66;92.30
75933;BME280;64803;52.356;5.310;2023-01-24T04:09:40;104282.38;;;2.54;92.86
75933;BME280;64803;52.356;5.310;2023-01-24T04:12:06;104300.50;;;2.69;92.49
75933;BME280;64803;52.356;5.310;2023-01-24T04:14:32;104302.28;;;2.69;93.22
75933;BME280;64803;52.356;5.310;2023-01-24T04:17:05;104304.97;;;2.67;92.68
75933;BME280;64803;52.356;5.310;2023-01-24T04:19:39;104303.25;;;2.66;93.92
75933;BME280;64803;52.356;5.310;2023-01-24T04:22:06;104308.50;;;2.68;93.38
75933;BME280;64803;52.356;5.310;2023-01-24T04:24:33;104310.31;;;2.66;92.65
75933;BME280;64803;52.356;5.310;2023-01-24T04:26:59;104304.97;;;2.67;92.91
75933;BME280;64803;52.356;5.310;2023-01-24T04:29:32;104309.53;;;2.62;93.05
75933;BME280;64803;52.356;5.310;2023-01-24T04:32:00;104307.97;;;2.55;92.87
75933;BME280;64803;52.356;5.310;2023-01-24T04:34:34;104307.91;;;2.57;92.62
75933;BME280;64803;52.356;5.310;2023-01-24T04:37:00;104310.53;;;2.58;93.26
75933;BME280;64803;52.356;5.310;2023-01-24T04:39:26;104297.34;;;2.55;92.67
75933;BME280;64803;52.356;5.310;2023-01-24T04:42:08;104309.59;;;2.61;93.03
75933;BME280;64803;52.356;5.310;2023-01-24T04:44:34;104313.06;;;2.63;91.84
75933;BME280;64803;52.356;5.310;2023-01-24T04:47:00;104313.06;;;2.63;92.72
75933;BME280;64803;52.356;5.310;2023-01-24T04:49:26;104308.00;;;2.54;91.26
75933;BME280;64803;52.356;5.310;2023-01-24T04:51:52;104303.66;;;2.51;92.11
75933;BME280;64803;52.356;5.310;2023-01-24T04:54:23;104308.09;;;2.51;91.82
75933;BME280;64803;52.356;5.310;2023-01-24T04:56:50;104263.59;;;2.29;92.74
75933;BME280;64803;52.356;5.310;2023-01-24T04:59:17;104307.13;;;2.53;92.74
75933;BME280;64803;52.356;5.310;2023-01-24T05:01:45;104310.63;;;2.55;91.82
75933;BME280;64803;52.356;5.310;2023-01-24T05:04:24;104314.25;;;2.51;90.40
75933;BME280;64803;52.356;5.310;2023-01-24T05:06:50;104320.47;;;2.50;91.69
75933;BME280;64803;52.356;5.310;2023-01-24T05:09:16;104311.59;;;2.51;91.46
75933;BME280;64803;52.356;5.310;2023-01-24T05:12:05;104310.84;;;2.46;90.34
75933;BME280;64803;52.356;5.310;2023-01-24T05:14:31;104310.94;;;2.43;90.92
75933;BME280;64803;52.356;5.310;2023-01-24T05:16:57;104312.94;;;2.35;91.34
75933;BME280;64803;52.356;5.310;2023-01-24T05:19:24;104322.69;;;2.35;90.96
75933;BME280;64803;52.356;5.310;2023-01-24T05:21:50;104325.38;;;2.33;91.68
75933;BME280;64803;52.356;5.310;2023-01-24T05:24:16;104314.84;;;2.30;92.50
75933;BME280;64803;52.356;5.310;2023-01-24T05:26:44;104325.28;;;2.36;92.22
75933;BME280;64803;52.356;5.310;2023-01-24T05:29:12;104328.84;;;2.35;93.27
75933;BME280;64803;52.356;5.310;2023-01-24T05:31:39;104329.69;;;2.37;93.45
75933;BME280;64803;52.356;5.310;2023-01-24T05:34:05;104324.31;;;2.40;93.80
75933;BME280;64803;52.356;5.310;2023-01-24T05:36:32;104330.59;;;2.36;92.36
75933;BME280;64803;52.356;5.310;2023-01-24T05:38:58;104329.66;;;2.39;92.98
75933;BME280;64803;52.356;5.310;2023-01-24T05:41:25;104332.16;;;2.43;94.16
75933;BME280;64803;52.356;5.310;2023-01-24T05:43:53;104333.91;;;2.44;93.16
75933;BME280;64803;52.356;5.310;2023-01-24T05:46:24;104327.00;;;2.39;93.39
75933;BME280;64803;52.356;5.310;2023-01-24T05:48:58;104328.03;;;2.33;93.58
75933;BME280;64803;52.356;5.310;2023-01-24T05:51:24;104324.69;;;2.25;92.16
75933;BME280;64803;52.356;5.310;2023-01-24T05:53:51;104325.50;;;2.27;93.30
75933;BME280;64803;52.356;5.310;2023-01-24T05:56:37;104331.75;;;2.26;94.32
75933;BME280;64803;52.356;5.310;2023-01-24T05:59:03;104328.25;;;2.24;93.85
75933;BME280;64803;52.356;5.310;2023-01-24T06:01:30;104325.66;;;2.22;93.57
75933;BME280;64803;52.356;5.310;2023-01-24T06:03:56;104333.47;;;2.27;93.48
75933;BME280;64803;52.356;5.310;2023-01-24T06:06:24;104332.53;;;2.29;93.58
75933;BME280;64803;52.356;5.310;2023-01-24T06:08:50;104325.47;;;2.30;93.97
75933;BME280;64803;52.356;5.310;2023-01-24T06:11:20;104332.56;;;2.28;94.39
75933;BME280;64803;52.356;5.310;2023-01-24T06:13:48;104332.50;;;2.31;94.00
75933;BME280;64803;52.356;5.310;2023-01-24T06:16:16;104333.28;;;2.35;94.66
75933;BME280;64803;52.356;5.310;2023-01-24T06:18:44;104333.19;;;2.38;95.06
75933;BME280;64803;52.356;5.310;2023-01-24T06:23:43;104332.34;;;2.37;94.38
75933;BME280;64803;52.356;5.310;2023-01-24T06:26:10;104336.84;;;2.34;94.52
75933;BME280;64803;52.356;5.310;2023-01-24T06:28:37;104337.94;;;2.25;94.14
75933;BME280;64803;52.356;5.310;2023-01-24T06:33:45;104332.84;;;2.17;93.12
75933;BME280;64803;52.356;5.310;2023-01-24T06:36:40;104336.44;;;2.15;93.25
75933;BME280;64803;52.356;5.310;2023-01-24T06:39:14;104342.56;;;2.17;94.23
75933;BME280;64803;52.356;5.310;2023-01-24T06:41:41;104343.47;;;2.17;94.18
75933;BME280;64803;52.356;5.310;2023-01-24T06:44:10;104341.75;;;2.15;93.99
75933;BME280;64803;52.356;5.310;2023-01-24T06:46:36;104338.34;;;2.10;94.54
75933;BME280;64803;52.356;5.310;2023-01-24T06:49:02;104344.47;;;2.12;93.80
75933;BME280;64803;52.356;5.310;2023-01-24T06:51:28;104342.75;;;2.11;94.73
75933;BME280;64803;52.356;5.310;2023-01-24T06:53:54;104299.31;;;1.81;93.51
75933;BME280;64803;52.356;5.310;2023-01-24T06:56:20;104353.34;;;2.09;93.58
75933;BME280;64803;52.356;5.310;2023-01-24T06:58:46;104349.72;;;2.13;93.58
75933;BME280;64803;52.356;5.310;2023-01-24T07:01:13;104342.78;;;2.08;93.33
75933;BME280;64803;52.356;5.310;2023-01-24T07:03:39;104354.16;;;2.13;93.43
75933;BME280;64803;52.356;5.310;2023-01-24T07:06:05;104361.34;;;2.08;94.00
75933;BME280;64803;52.356;5.310;2023-01-24T07:08:31;104361.44;;;2.05;93.63
75933;BME280;64803;52.356;5.310;2023-01-24T07:10:57;104359.63;;;2.07;93.99
75933;BME280;64803;52.356;5.310;2023-01-24T07:13:24;104362.28;;;2.07;94.31
75933;BME280;64803;52.356;5.310;2023-01-24T07:15:50;104359.63;;;2.07;94.53
75933;BME280;64803;52.356;5.310;2023-01-24T07:18:18;104369.22;;;2.12;93.73
75933;BME280;64803;52.356;5.310;2023-01-24T07:20:45;104366.59;;;2.11;93.23
75933;BME280;64803;52.356;5.310;2023-01-24T07:23:25;104381.53;;;2.13;94.63
75933;BME280;64803;52.356;5.310;2023-01-24T07:25:57;104365.81;;;2.06;93.75
75933;BME280;64803;52.356;5.310;2023-01-24T07:28:23;104369.25;;;2.09;94.35
75933;BME280;64803;52.356;5.310;2023-01-24T07:30:49;104377.13;;;2.14;93.64
75933;BME280;64803;52.356;5.310;2023-01-24T07:33:17;104372.00;;;2.06;93.78
75933;BME280;64803;52.356;5.310;2023-01-24T07:35:43;104375.44;;;2.10;94.59
75933;BME280;64803;52.356;5.310;2023-01-24T07:38:09;104375.34;;;2.13;94.92
75933;BME280;64803;52.356;5.310;2023-01-24T07:40:38;104342.34;;;1.91;95.00
75933;BME280;64803;52.356;5.310;2023-01-24T07:43:05;104379.88;;;2.09;94.79
75933;BME280;64803;52.356;5.310;2023-01-24T07:45:31;104347.66;;;1.91;95.20
75933;BME280;64803;52.356;5.310;2023-01-24T07:48:01;104383.47;;;2.07;95.57
75933;BME280;64803;52.356;5.310;2023-01-24T07:50:27;104383.47;;;2.07;95.26
75933;BME280;64803;52.356;5.310;2023-01-24T07:52:55;104380.00;;;2.05;95.50
75933;BME280;64803;52.356;5.310;2023-01-24T07:55:22;104380.91;;;2.04;94.27
75933;BME280;64803;52.356;5.310;2023-01-24T07:57:49;104313.78;;;1.67;94.08
75933;BME280;64803;52.356;5.310;2023-01-24T08:00:16;104381.81;;;2.03;94.44
75933;BME280;64803;52.356;5.310;2023-01-24T08:02:43;104381.84;;;2.01;94.12
75933;BME280;64803;52.356;5.310;2023-01-24T08:05:10;104381.75;;;2.04;93.89
75933;BME280;64803;52.356;5.310;2023-01-24T08:07:36;104384.31;;;2.09;94.21
75933;BME280;64803;52.356;5.310;2023-01-24T08:10:03;104384.31;;;2.09;94.30
75933;BME280;64803;52.356;5.310;2023-01-24T08:12:29;104382.56;;;2.08;93.69
75933;BME280;64803;52.356;5.310;2023-01-24T08:14:55;104388.78;;;2.07;94.07
75933;BME280;64803;52.356;5.310;2023-01-24T08:17:21;104393.91;;;2.13;94.60
75933;BME280;64803;52.356;5.310;2023-01-24T08:19:47;104388.63;;;2.13;95.02
75933;BME280;64803;52.356;5.310;2023-01-24T08:22:13;104384.31;;;2.09;95.30
75933;BME280;64803;52.356;5.310;2023-01-24T08:24:39;104402.72;;;2.15;95.29
75933;BME280;64803;52.356;5.310;2023-01-24T08:27:05;104406.19;;;2.17;96.08
75933;BME280;64803;52.356;5.310;2023-01-24T08:29:31;104398.25;;;2.17;96.01
75933;BME280;64803;52.356;5.310;2023-01-24T08:31:58;104410.56;;;2.18;95.79
75933;BME280;64803;52.356;5.310;2023-01-24T08:34:24;104417.66;;;2.19;95.67
75933;BME280;64803;52.356;5.310;2023-01-24T08:36:50;104425.63;;;2.17;96.52
75933;BME280;64803;52.356;5.310;2023-01-24T08:39:16;104421.19;;;2.18;95.79
75933;BME280;64803;52.356;5.310;2023-01-24T08:41:43;104407.25;;;2.10;96.00
75933;BME280;64803;52.356;5.310;2023-01-24T08:44:14;104426.50;;;2.18;96.46
75933;BME280;64803;52.356;5.310;2023-01-24T08:46:41;104429.09;;;2.21;95.92
75933;BME280;64803;52.356;5.310;2023-01-24T08:49:10;104437.03;;;2.21;95.01
75933;BME280;64803;52.356;5.310;2023-01-24T08:51:36;104433.47;;;2.22;94.59
75933;BME280;64803;52.356;5.310;2023-01-24T08:54:04;104431.78;;;2.18;93.15
75933;BME280;64803;52.356;5.310;2023-01-24T08:56:30;104431.88;;;2.15;93.36
75933;BME280;64803;52.356;5.310;2023-01-24T08:58:56;104444.28;;;2.13;93.37
75933;BME280;64803;52.356;5.310;2023-01-24T09:01:22;104434.47;;;2.16;93.96
75933;BME280;64803;52.356;5.310;2023-01-24T09:03:48;104440.81;;;2.11;92.71
75933;BME280;64803;52.356;5.310;2023-01-24T09:06:14;104435.44;;;2.14;94.00
75933;BME280;64803;52.356;5.310;2023-01-24T09:08:40;104405.75;;;2.00;94.34
75933;BME280;64803;52.356;5.310;2023-01-24T09:11:06;104438.94;;;2.16;94.13
75933;BME280;64803;52.356;5.310;2023-01-24T09:13:32;104440.59;;;2.20;95.13
75933;BME280;64803;52.356;5.310;2023-01-24T09:15:58;104438.72;;;2.23;94.69
75933;BME280;64803;52.356;5.310;2023-01-24T09:18:24;104440.44;;;2.26;95.03
75933;BME280;64803;52.356;5.310;2023-01-24T09:20:50;104445.59;;;2.32;94.45
75933;BME280;64803;52.356;5.310;2023-01-24T09:23:16;104435.16;;;2.26;94.27
75933;BME280;64803;52.356;5.310;2023-01-24T09:25:49;104447.28;;;2.36;95.06
75933;BME280;64803;52.356;5.310;2023-01-24T09:28:15;104414.94;;;2.20;94.52
75933;BME280;64803;52.356;5.310;2023-01-24T09:30:44;104438.56;;;2.31;94.14
75933;BME280;64803;52.356;5.310;2023-01-24T09:33:10;104447.44;;;2.30;93.94
75933;BME280;64803;52.356;5.310;2023-01-24T09:35:36;104449.16;;;2.31;94.18
75933;BME280;64803;52.356;5.310;2023-01-24T09:38:02;104445.56;;;2.34;93.52
75933;BME280;64803;52.356;5.310;2023-01-24T09:40:41;104451.72;;;2.34;93.29
75933;BME280;64803;52.356;5.310;2023-01-24T09:46:25;104447.34;;;2.33;93.28
75933;BME280;64803;52.356;5.310;2023-01-24T09:48:59;104450.09;;;2.28;92.85
75933;BME280;64803;52.356;5.310;2023-01-24T09:51:30;104451.94;;;2.25;93.57
75933;BME280;64803;52.356;5.310;2023-01-24T09:54:02;104451.09;;;2.24;93.07
75933;BME280;64803;52.356;5.310;2023-01-24T09:56:34;104452.75;;;2.30;93.55
75933;BME280;64803;52.356;5.310;2023-01-24T09:59:19;104445.66;;;2.29;93.17
75933;BME280;64803;52.356;5.310;2023-01-24T10:01:50;104450.09;;;2.28;92.72
75933;BME280;64803;52.356;5.310;2023-01-24T10:04:24;104451.81;;;2.31;92.69
75933;BME280;64803;52.356;5.310;2023-01-24T10:10:10;104453.38;;;2.40;93.34
75933;BME280;64803;52.356;5.310;2023-01-24T10:15:57;104454.25;;;2.40;93.56
75933;BME280;64803;52.356;5.310;2023-01-24T10:21:10;104454.13;;;2.45;94.07
75933;BME280;64803;52.356;5.310;2023-01-24T10:23:42;104461.16;;;2.47;93.26
75933;BME280;64803;52.356;5.310;2023-01-24T10:26:20;104449.56;;;2.50;93.25
75933;BME280;64803;52.356;5.310;2023-01-24T10:28:51;104451.34;;;2.51;93.38
75933;BME280;64803;52.356;5.310;2023-01-24T10:31:25;104451.22;;;2.55;92.97
75933;BME280;64803;52.356;5.310;2023-01-24T10:33:57;104450.38;;;2.53;93.66
75933;BME280;64803;52.356;5.310;2023-01-24T10:36:46;104445.16;;;2.50;93.15
75933;BME280;64803;52.356;5.310;2023-01-24T10:39:14;104442.53;;;2.49;93.71
75933;BME280;64803;52.356;5.310;2023-01-24T10:41:40;104436.53;;;2.42;92.74
75933;BME280;64803;52.356;5.310;2023-01-24T10:44:27;104441.56;;;2.51;93.37
75933;BME280;64803;52.356;5.310;2023-01-24T10:49:33;104390.91;;;2.28;91.73
75933;BME280;64803;52.356;5.310;2023-01-24T10:52:19;104439.56;;;2.61;92.24
75933;BME280;64803;52.356;5.310;2023-01-24T10:55:25;104433.47;;;2.57;92.10
75933;BME280;64803;52.356;5.310;2023-01-24T10:57:54;104429.16;;;2.53;91.27
75933;BME280;64803;52.356;5.310;2023-01-24T11:02:53;104420.25;;;2.56;92.59
75933;BME280;64803;52.356;5.310;2023-01-24T11:05:21;104423.69;;;2.59;91.65
75933;BME280;64803;52.356;5.310;2023-01-24T11:07:58;104428.41;;;2.48;92.02
75933;BME280;64803;52.356;5.310;2023-01-24T11:10:28;104424.06;;;2.44;92.01
75933;BME280;64803;52.356;5.310;2023-01-24T11:12:58;104411.91;;;2.37;91.92
75933;BME280;64803;52.356;5.310;2023-01-24T11:17:58;104418.44;;;2.58;92.86
75933;BME280;64803;52.356;5.310;2023-01-24T11:20:29;104409.75;;;2.51;92.29
75933;BME280;64803;52.356;5.310;2023-01-24T11:23:22;104410.63;;;2.52;92.40
75933;BME280;64803;52.356;5.310;2023-01-24T11:25:57;104406.00;;;2.60;93.02
75933;BME280;64803;52.356;5.310;2023-01-24T11:28:29;104413.22;;;2.53;91.92
75933;BME280;64803;52.356;5.310;2023-01-24T11:30:59;104407.09;;;2.51;91.67
75933;BME280;64803;52.356;5.310;2023-01-24T11:33:49;104416.19;;;2.41;92.95
75933;BME280;64803;52.356;5.310;2023-01-24T11:36:35;104400.91;;;2.52;92.76
75933;BME280;64803;52.356;5.310;2023-01-24T11:44:55;104394.00;;;2.45;93.26
75933;BME280;64803;52.356;5.310;2023-01-24T11:47:33;104398.34;;;2.49;92.91
75933;BME280;64803;52.356;5.310;2023-01-24T11:50:04;104394.72;;;2.52;91.96
75933;BME280;64803;52.356;5.310;2023-01-24T12:01:39;104376.00;;;2.58;91.09
75933;BME280;64803;52.356;5.310;2023-01-24T12:05:15;104375.25;;;2.53;92.19
75933;BME280;64803;52.356;5.310;2023-01-24T12:10:05;104374.03;;;2.64;93.65
75933;BME280;64803;52.356;5.310;2023-01-24T12:21:32;104368.59;;;2.70;92.71
75933;BME280;64803;52.356;5.310;2023-01-24T12:24:13;104363.97;;;2.77;93.23
75933;BME280;64803;52.356;5.310;2023-01-24T12:26:50;104369.25;;;2.78;92.00
75933;BME280;64803;52.356;5.310;2023-01-24T12:32:22;104372.59;;;2.85;92.24
75933;BME280;64803;52.356;5.310;2023-01-24T12:35:25;104361.28;;;2.78;91.46
75933;BME280;64803;52.356;5.310;2023-01-24T12:37:57;104310.72;;;2.52;90.98
75933;BME280;64803;52.356;5.310;2023-01-24T12:46:16;104347.75;;;2.87;92.48
75933;BME280;64803;52.356;5.310;2023-01-24T12:49:02;104323.34;;;2.75;91.37
75933;BME280;64803;52.356;5.310;2023-01-24T12:51:42;104346.09;;;2.83;91.56
75933;BME280;64803;52.356;5.310;2023-01-24T12:54:16;104339.78;;;2.87;92.17
75933;BME280;64803;52.356;5.310;2023-01-24T12:56:52;104323.81;;;2.89;92.13
75933;BME280;64803;52.356;5.310;2023-01-24T12:59:24;104314.19;;;2.85;91.86
75933;BME280;64803;52.356;5.310;2023-01-24T13:05:01;104335.34;;;2.88;90.93
75933;BME280;64803;52.356;5.310;2023-01-24T13:12:47;104325.78;;;2.82;88.94
75933;BME280;64803;52.356;5.310;2023-01-24T13:15:18;104314.19;;;2.85;89.70
75933;BME280;64803;52.356;5.310;2023-01-24T13:18:04;104315.91;;;2.87;90.93
75933;BME280;64803;52.356;5.310;2023-01-24T13:20:43;104325.75;;;2.84;90.06
75933;BME280;64803;52.356;5.310;2023-01-24T13:28:55;104314.53;;;2.73;90.56
75933;BME280;64803;52.356;5.310;2023-01-24T13:34:16;104321.81;;;2.66;90.82
75933;BME280;64803;52.356;5.310;2023-01-24T13:36:48;104313.75;;;2.69;90.39
75933;BME280;64803;52.356;5.310;2023-01-24T13:39:41;104310.13;;;2.73;91.45
75933;BME280;64803;52.356;5.310;2023-01-24T13:44:43;104303.97;;;2.71;91.84
75933;BME280;64803;52.356;5.310;2023-01-24T13:49:38;104311.06;;;2.71;91.01
75933;BME280;64803;52.356;5.310;2023-01-24T13:57:44;104308.41;;;2.71;90.84
75933;BME280;64803;52.356;5.310;2023-01-24T14:08:13;104309.69;;;2.58;91.63
75933;BME280;64803;52.356;5.310;2023-01-24T14:10:48;104297.25;;;2.60;90.99
75933;BME280;64803;52.356;5.310;2023-01-24T14:16:12;104299.91;;;2.60;90.43
75933;BME280;64803;52.356;5.310;2023-01-24T14:21:19;104261.78;;;2.32;90.95
75933;BME280;64803;52.356;5.310;2023-01-24T14:23:50;104257.31;;;2.34;92.28
75933;BME280;64803;52.356;5.310;2023-01-24T14:26:20;104297.50;;;2.51;91.26
75933;BME280;64803;52.356;5.310;2023-01-24T14:28:49;104300.09;;;2.52;91.37
75933;BME280;64803;52.356;5.310;2023-01-24T14:31:38;104309.88;;;2.50;91.34
75933;BME280;64803;52.356;5.310;2023-01-24T14:34:24;104290.63;;;2.44;91.39
75933;BME280;64803;52.356;5.310;2023-01-24T14:37:12;104308.16;;;2.48;91.67
75933;BME280;64803;52.356;5.310;2023-01-24T14:39:41;104302.94;;;2.45;91.40
75933;BME280;64803;52.356;5.310;2023-01-24T14:42:15;104303.91;;;2.42;90.36
75933;BME280;64803;52.356;5.310;2023-01-24T14:44:55;104310.84;;;2.46;91.57
75933;BME280;64803;52.356;5.310;2023-01-24T14:49:56;104307.47;;;2.41;91.84
75933;BME280;64803;52.356;5.310;2023-01-24T14:52:33;104306.63;;;2.39;92.05
75933;BME280;64803;52.356;5.310;2023-01-24T14:55:31;104312.78;;;2.41;92.26
75933;BME280;64803;52.356;5.310;2023-01-24T14:58:16;104309.22;;;2.42;92.31
75933;BME280;64803;52.356;5.310;2023-01-24T15:00:45;104302.16;;;2.41;91.68
75933;BME280;64803;52.356;5.310;2023-01-24T15:03:16;104299.69;;;2.35;91.69
75933;BME280;64803;52.356;5.310;2023-01-24T15:08:17;104298.91;;;2.32;91.54
75933;BME280;64803;52.356;5.310;2023-01-24T15:10:44;104302.50;;;2.29;92.21
75933;BME280;64803;52.356;5.310;2023-01-24T15:13:19;104315.75;;;2.29;92.67
75933;BME280;64803;52.356;5.310;2023-01-24T15:15:48;104316.72;;;2.25;92.32